Bend, OR (97701)

6:23 PM PDT on September 04, 2015 (GMT -0700)
Near The River | | Change Station
CLOSE
Current Station
Personal Weather Station
Location: Bend, OR
Elevation: 3533 ft
Nearby Weather Stations

Elev 3533 ft 44.09 °N, 121.31 °W | Updated 3 minutes ago

Clear
Clear
53.1 °F
Feels Like 53.1 °F
N
0.0
Wind Variable Wind from North
Gusts 0.0 mph

Today
High -- | Low -- °F
--% Chance of Precip.
Yesterday
High -- | Low -- °F
Precip. -- in
6:31 AM 7:36 PM
Waning Gibbous, 54% visible
Pressure 29.93 in
Visibility 10.0 miles
Clouds Mostly Cloudy 3500 ft
Overcast 4000 ft
Dew Point 32 °F
Humidity 26%
Rainfall 0.00 in
Snow Depth Not available.
UV 0 out of 12
Pollen 2.10 out of 12
Air Quality Not available.
Flu Activity Not available.
METAR KBDN 050115Z AUTO 34013G16KT 10SM BKN035 OVC040 11/03 A2993 RMK AO2
Pressure 29.93 in
Visibility 10.0 miles
Clouds Mostly Cloudy 3500 ft
Overcast 4000 ft
Dew Point 32 °F
Humidity 26%
Rainfall 0.00 in
Snow Depth Not available.
UV 0 out of 12
Pollen 2.10 out of 12
Air Quality Not available.
Flu Activity Not available.
METAR KBDN 050115Z AUTO 34013G16KT 10SM BKN035 OVC040 11/03 A2993 RMK AO2
Nowcast | as of 3:56 PM PDT on September 4, 2015

Rain showers are moving through the area and will continue through the evening. Isolated thunderstorms with small hail can also be expected. Snow showers will also be possible above 5000 feet.

×

10-Day Weather Forecast

×

Almanac

Astronomy

Sep. 04, 2015 Rise Set
Actual Time
Civil Twilight
Nautical Twilight
Astronomical Twilight
Moon
Length of Visible Light
Length of Day
Tomorrow will be .
, % of the Moon is Illuminated

Today's Extremes

State Highs State Lows

Community

WunderPhotos

Upload Photos

1,852,374 photos uploaded!

WunderBlogs® & News

Nearby

Air Quality

  Air Quality AQ Index Pollutant
Not available.

Snow Depth

Station Depth Elevation

Earthquake Activity

City Distance Mag. Time & Date
Minimum magnitude displayed is 2.5.

Coastal Water Temperatures

Place Temperature

Stations

Nearby Weather Stations

Station Location Temp. Windchill Dew Point Humidity Wind Precip. Elev Updated Type